Terminal Aerodrome Forecast
Issued by NWS Topeka, KS

Home | Current Version | Previous Version | Graphics & Text | Print | Product List | Glossary Off
Versions: 1 2 3 4 5 6 7 8 9 10 11 12 13 14 15 16 17 18

000
FTUS43 KTOP 231100
TAFTOP
TAF
KTOP 231120Z 2312/2412 14014G22KT P6SM -SHRA OVC100
     FM231900 16020G30KT P6SM SCT150
     FM240900 20011KT 3SM TSRA OVC014CB=

USA.gov is the U.S. government's official web portal to all federal, state and local government web resources and services.